createdAt,value
2017-06-08T00:00:11.653Z,1.80
2017-06-08T00:02:39.919Z,2.35
2017-06-08T00:05:08.167Z,3.45
2017-06-08T00:07:35.671Z,2.05
2017-06-08T00:10:03.157Z,2.30
2017-06-08T00:12:30.648Z,2.12
2017-06-08T00:14:58.147Z,2.60
2017-06-08T00:17:25.627Z,2.12
2017-06-08T00:19:53.142Z,2.65
2017-06-08T00:22:20.626Z,1.75
2017-06-08T00:24:48.115Z,1.95
2017-06-08T00:27:15.611Z,2.90
2017-06-08T00:29:43.086Z,2.42
2017-06-08T00:32:10.591Z,2.33
2017-06-08T00:34:38.072Z,2.75
2017-06-08T00:37:05.556Z,2.20
2017-06-08T00:39:33.061Z,1.52
2017-06-08T00:42:00.551Z,2.10
2017-06-08T00:44:29.015Z,1.70
2017-06-08T00:46:56.495Z,1.60
2017-06-08T00:49:23.983Z,2.28
2017-06-08T00:51:51.480Z,2.15
2017-06-08T00:54:19.458Z,2.20
2017-06-08T00:56:47.723Z,2.33
2017-06-08T00:59:15.235Z,1.80
2017-06-08T01:01:42.732Z,1.80
2017-06-08T01:04:10.230Z,1.90
2017-06-08T01:06:37.714Z,2.30
2017-06-08T01:09:05.224Z,2.15
2017-06-08T01:11:33.466Z,2.40
2017-06-08T01:14:00.947Z,2.47
2017-06-08T01:16:28.471Z,1.80
2017-06-08T01:18:55.999Z,2.10
2017-06-08T01:21:23.499Z,1.80
2017-06-08T01:23:50.978Z,1.83
2017-06-08T01:26:19.223Z,1.92
2017-06-08T01:28:46.799Z,1.77
2017-06-08T01:31:14.276Z,2.50
2017-06-08T01:33:41.778Z,2.72
2017-06-08T01:36:09.259Z,2.22
2017-06-08T01:38:37.146Z,2.22
2017-06-08T01:41:05.432Z,1.90
2017-06-08T01:43:33.672Z,2.20
2017-06-08T01:46:01.196Z,1.80
2017-06-08T01:48:28.686Z,1.73
2017-06-08T01:50:56.171Z,1.95
2017-06-08T01:53:24.440Z,2.10
2017-06-08T01:55:52.687Z,2.33
2017-06-08T01:58:20.199Z,2.25
2017-06-08T02:00:47.686Z,4.22
2017-06-08T02:03:15.167Z,1.92
2017-06-08T02:05:42.700Z,2.58
2017-06-08T02:08:10.186Z,3.42
2017-06-08T02:10:37.743Z,2.17
2017-06-08T02:13:05.271Z,2.28
2017-06-08T02:15:32.787Z,1.85
2017-06-08T02:18:01.055Z,2.47
2017-06-08T02:20:29.299Z,2.10
2017-06-08T02:22:56.824Z,2.42
2017-06-08T02:25:24.306Z,1.85
2017-06-08T02:27:51.810Z,2.55
2017-06-08T02:30:19.315Z,2.25
2017-06-08T02:32:46.814Z,2.62
2017-06-08T02:35:15.099Z,2.33
2017-06-08T02:37:42.583Z,2.20
2017-06-08T02:40:10.083Z,2.15
2017-06-08T02:42:37.573Z,2.65
2017-06-08T02:45:05.056Z,2.95
2017-06-08T02:47:32.622Z,2.30
2017-06-08T02:50:00.129Z,2.70
2017-06-08T02:52:28.379Z,2.90
2017-06-08T02:54:55.874Z,2.12
2017-06-08T02:57:24.123Z,2.08
2017-06-08T02:59:51.619Z,2.92
2017-06-08T03:02:19.099Z,2.40
2017-06-08T03:04:46.587Z,2.15
2017-06-08T03:07:14.092Z,2.08
2017-06-08T03:09:41.603Z,2.72
2017-06-08T03:12:09.109Z,2.05
2017-06-08T03:14:36.596Z,2.62
2017-06-08T03:17:04.114Z,2.33
2017-06-08T03:19:31.639Z,2.12
2017-06-08T03:21:59.117Z,2.45
2017-06-08T03:24:27.366Z,2.50
2017-06-08T03:26:54.863Z,2.85
2017-06-08T03:29:22.339Z,3.10
2017-06-08T03:31:49.814Z,2.60
2017-06-08T03:34:17.329Z,2.00
2017-06-08T03:36:44.815Z,2.17
2017-06-08T03:39:12.314Z,2.50
2017-06-08T03:41:39.815Z,2.45
2017-06-08T03:44:07.300Z,2.20
2017-06-08T03:46:34.810Z,2.03
2017-06-08T03:49:03.050Z,2.92
2017-06-08T03:51:30.531Z,1.95
2017-06-08T03:53:58.791Z,2.60
2017-06-08T03:56:26.267Z,2.60
2017-06-08T03:58:54.550Z,2.75
2017-06-08T04:01:22.039Z,2.55
2017-06-08T04:03:49.520Z,3.15
2017-06-08T04:06:17.034Z,3.70
2017-06-08T04:08:44.524Z,2.67
2017-06-08T04:11:12.027Z,4.20
2017-06-08T04:13:40.270Z,2.92
2017-06-08T04:16:10.530Z,3.22
2017-06-08T04:18:38.027Z,2.80
2017-06-08T04:21:05.562Z,3.37
2017-06-08T04:23:33.077Z,2.58
2017-06-08T04:26:01.331Z,2.80
2017-06-08T04:28:28.829Z,2.75
2017-06-08T04:30:56.346Z,3.10
2017-06-08T04:33:23.827Z,2.62
2017-06-08T04:35:52.102Z,2.20
2017-06-08T04:38:20.370Z,2.75
2017-06-08T04:40:47.845Z,2.60
2017-06-08T04:43:16.103Z,3.20
2017-06-08T04:45:43.586Z,3.15
2017-06-08T04:48:11.079Z,2.50
2017-06-08T04:50:38.557Z,2.45
2017-06-08T04:53:06.062Z,2.65
2017-06-08T04:55:33.554Z,2.65
2017-06-08T04:58:01.051Z,2.92
2017-06-08T05:00:29.307Z,3.08
2017-06-08T05:02:56.802Z,2.53
2017-06-08T05:05:24.318Z,2.58
2017-06-08T05:07:51.804Z,2.83
2017-06-08T05:10:20.055Z,3.47
2017-06-08T05:12:47.556Z,3.00
2017-06-08T05:15:15.042Z,3.00
2017-06-08T05:17:42.552Z,3.00
2017-06-08T05:20:10.803Z,4.78
2017-06-08T05:22:38.301Z,2.90
2017-06-08T05:25:05.823Z,2.20
2017-06-08T05:27:33.303Z,3.55
2017-06-08T05:30:00.811Z,3.00
2017-06-08T05:32:28.315Z,2.58
2017-06-08T05:34:56.624Z,3.15
2017-06-08T05:37:24.139Z,3.30
2017-06-08T05:39:51.642Z,3.00
2017-06-08T05:42:19.161Z,3.62
2017-06-08T05:44:47.407Z,3.55
2017-06-08T05:47:14.907Z,3.70
2017-06-08T05:49:42.443Z,3.05
2017-06-08T05:52:10.690Z,3.05
2017-06-08T05:54:38.191Z,4.37
2017-06-08T05:57:05.674Z,3.80
2017-06-08T05:59:33.154Z,3.37
2017-06-08T06:02:00.651Z,3.37
2017-06-08T06:04:28.159Z,3.90
2017-06-08T06:06:55.666Z,4.65
2017-06-08T06:09:23.918Z,4.18
2017-06-08T06:11:52.171Z,4.05
2017-06-08T06:14:19.671Z,4.03
2017-06-08T06:16:47.923Z,4.70
2017-06-08T06:19:15.432Z,3.17
2017-06-08T06:21:42.914Z,3.35
2017-06-08T06:24:10.406Z,3.90
2017-06-08T06:26:38.695Z,3.40
2017-06-08T06:29:06.938Z,3.73
2017-06-08T06:31:34.451Z,3.60
2017-06-08T06:34:01.936Z,3.57
2017-06-08T06:36:29.423Z,4.30
2017-06-08T06:38:56.917Z,3.50
2017-06-08T06:41:24.405Z,3.70
2017-06-08T06:43:51.907Z,3.40
2017-06-08T06:46:20.155Z,3.13
2017-06-08T06:48:47.635Z,3.43
2017-06-08T06:51:15.131Z,3.17
2017-06-08T06:53:42.606Z,4.13
2017-06-08T06:56:10.131Z,4.00
2017-06-08T06:58:37.627Z,3.03
2017-06-08T07:01:05.102Z,3.20
2017-06-08T07:03:32.600Z,2.93
2017-06-08T07:06:00.074Z,2.83
2017-06-08T07:08:27.582Z,3.00
2017-06-08T07:10:55.058Z,2.50
2017-06-08T07:13:22.535Z,3.03
2017-06-08T07:15:50.038Z,2.30
2017-06-08T07:18:17.542Z,3.10
2017-06-08T07:20:45.098Z,2.40
2017-06-08T07:23:12.588Z,2.90
2017-06-08T07:25:40.055Z,2.93
2017-06-08T07:28:07.554Z,2.93
2017-06-08T07:30:35.037Z,2.27
2017-06-08T07:33:02.551Z,2.93
2017-06-08T07:35:30.035Z,2.93
2017-06-08T07:37:58.270Z,2.40
2017-06-08T07:40:25.759Z,3.00
2017-06-08T07:42:53.998Z,2.30
2017-06-08T07:45:21.545Z,2.63
2017-06-08T07:47:49.026Z,2.10
2017-06-08T07:50:16.523Z,2.20
2017-06-08T07:52:44.056Z,2.33
2017-06-08T07:55:12.318Z,2.27
2017-06-08T07:57:39.832Z,2.13
2017-06-08T08:00:07.314Z,2.03
2017-06-08T08:02:46.662Z,1.93
2017-06-08T08:05:14.138Z,2.60
2017-06-08T08:07:42.397Z,1.80
2017-06-08T08:10:09.892Z,1.63
2017-06-08T08:12:37.362Z,2.60
2017-06-08T08:15:04.870Z,1.87
2017-06-08T08:17:32.354Z,2.00
2017-06-08T08:20:00.591Z,2.10
2017-06-08T08:22:28.100Z,2.23
2017-06-08T08:24:55.574Z,2.17
2017-06-08T08:27:23.091Z,2.20
2017-06-08T08:29:51.334Z,2.10
2017-06-08T08:32:18.828Z,2.30
2017-06-08T08:34:47.086Z,1.97
2017-06-08T08:37:14.573Z,2.10
2017-06-08T08:39:42.079Z,2.70
2017-06-08T08:42:09.562Z,1.83
2017-06-08T08:44:37.039Z,2.37
2017-06-08T08:47:04.575Z,2.20
2017-06-08T08:49:32.077Z,2.17
2017-06-08T08:51:59.566Z,2.23
2017-06-08T08:54:27.047Z,2.27
2017-06-08T08:56:55.287Z,2.20
2017-06-08T08:59:22.791Z,2.50
2017-06-08T09:01:51.795Z,2.00
2017-06-08T09:04:20.021Z,2.70
2017-06-08T09:06:47.498Z,2.40
2017-06-08T09:09:14.976Z,2.07
2017-06-08T09:11:43.262Z,2.33
2017-06-08T09:14:10.735Z,2.83
2017-06-08T09:16:38.258Z,2.30
2017-06-08T09:19:06.504Z,2.37
2017-06-08T09:21:33.991Z,2.90
2017-06-08T09:24:02.254Z,2.50
2017-06-08T09:26:30.539Z,2.53
2017-06-08T09:28:58.855Z,2.37
2017-06-08T09:31:26.322Z,2.50
2017-06-08T09:33:53.815Z,2.57
2017-06-08T09:36:22.128Z,3.03
2017-06-08T09:38:49.610Z,2.43
2017-06-08T09:41:17.114Z,2.53
2017-06-08T09:43:46.639Z,2.77
2017-06-08T09:46:14.114Z,3.07
2017-06-08T09:48:41.602Z,2.50
2017-06-08T09:51:09.072Z,2.57
2017-06-08T09:53:36.606Z,2.30
2017-06-08T09:56:04.147Z,2.83
2017-06-08T09:58:31.623Z,2.40
2017-06-08T10:00:59.127Z,2.50
2017-06-08T10:03:26.607Z,3.10
2017-06-08T10:05:54.102Z,1.83
2017-06-08T10:08:21.579Z,2.70
2017-06-08T10:10:49.076Z,2.03
2017-06-08T10:13:16.567Z,2.80
2017-06-08T10:15:44.200Z,2.63
2017-06-08T10:18:12.550Z,2.40
2017-06-08T10:20:40.832Z,1.87
2017-06-08T10:23:09.102Z,2.23
2017-06-08T10:25:36.618Z,1.97
2017-06-08T10:28:04.096Z,2.23
2017-06-08T10:30:31.614Z,2.43
2017-06-08T10:32:59.094Z,2.13
2017-06-08T10:35:27.343Z,2.67
2017-06-08T10:37:54.840Z,1.80
2017-06-08T10:40:22.310Z,2.37
2017-06-08T10:42:49.846Z,2.47
2017-06-08T10:45:17.319Z,2.37
2017-06-08T10:47:44.795Z,2.50
2017-06-08T10:50:12.346Z,2.47
2017-06-08T10:52:39.822Z,2.40
2017-06-08T10:55:07.303Z,2.20
2017-06-08T10:57:35.604Z,2.23
2017-06-08T11:00:03.080Z,1.70
2017-06-08T11:02:30.564Z,1.90
2017-06-08T11:04:58.075Z,2.67
2017-06-08T11:07:25.571Z,2.30
2017-06-08T11:09:53.046Z,1.97
2017-06-08T11:12:20.596Z,1.80
2017-06-08T11:14:48.111Z,1.90
2017-06-08T11:17:18.455Z,1.60
2017-06-08T11:19:46.667Z,2.30
2017-06-08T11:22:15.071Z,2.47
2017-06-08T11:24:43.305Z,2.27
2017-06-08T11:27:12.462Z,2.70
2017-06-08T11:29:39.958Z,1.90
2017-06-08T11:32:08.204Z,2.47
2017-06-08T11:34:35.688Z,1.70
2017-06-08T11:37:03.186Z,2.10
2017-06-08T11:39:30.668Z,2.13
2017-06-08T11:41:58.187Z,1.77
2017-06-08T11:44:25.673Z,2.70
2017-06-08T11:46:53.169Z,2.30
2017-06-08T11:49:20.655Z,1.97
2017-06-08T11:51:48.134Z,1.77
2017-06-08T11:54:15.631Z,1.77
2017-06-08T11:56:43.106Z,1.80
2017-06-08T11:59:10.587Z,2.10
2017-06-08T12:01:38.083Z,2.10
2017-06-08T12:04:06.331Z,2.40
2017-06-08T12:06:33.848Z,2.23
2017-06-08T12:09:01.331Z,1.90
2017-06-08T12:11:28.803Z,2.70
2017-06-08T12:13:56.290Z,2.37
2017-06-08T12:16:24.535Z,2.57
2017-06-08T12:18:52.044Z,1.50
2017-06-08T12:21:26.190Z,2.70
2017-06-08T12:23:53.739Z,1.83
2017-06-08T12:26:21.215Z,2.13
2017-06-08T12:28:48.685Z,2.20
2017-06-08T12:31:16.938Z,2.40
2017-06-08T12:33:44.447Z,2.00
2017-06-08T12:36:11.997Z,2.37
2017-06-08T12:38:39.495Z,2.60
2017-06-08T12:41:06.974Z,1.87
2017-06-08T12:43:34.473Z,2.73
2017-06-08T12:46:01.948Z,1.80
2017-06-08T12:48:29.451Z,1.67
2017-06-08T12:50:56.930Z,1.83
2017-06-08T12:53:24.406Z,1.80
2017-06-08T12:55:51.897Z,2.50
2017-06-08T12:58:19.386Z,2.10
2017-06-08T13:00:46.878Z,1.90
2017-06-08T13:03:14.356Z,2.23
2017-06-08T13:05:41.854Z,2.20
2017-06-08T13:08:09.366Z,1.87
2017-06-08T13:10:36.834Z,2.13
2017-06-08T13:13:05.047Z,1.80
2017-06-08T13:15:32.526Z,2.00
2017-06-08T13:18:00.038Z,2.43
2017-06-08T13:20:27.523Z,2.10
2017-06-08T13:22:55.006Z,2.93
2017-06-08T13:25:22.499Z,1.90
2017-06-08T13:27:49.975Z,1.50
2017-06-08T13:30:17.471Z,2.60
2017-06-08T13:32:44.951Z,2.07
2017-06-08T13:35:13.199Z,2.07
2017-06-08T13:37:40.695Z,2.00
2017-06-08T13:40:08.930Z,2.40
2017-06-08T13:42:36.460Z,1.87
2017-06-08T13:45:04.068Z,2.13
2017-06-08T13:47:32.318Z,2.87
2017-06-08T13:49:59.812Z,1.90
2017-06-08T13:52:27.292Z,1.63
2017-06-08T13:54:54.788Z,2.20
2017-06-08T13:57:23.071Z,2.30
2017-06-08T13:59:50.571Z,1.97
2017-06-08T14:02:18.070Z,1.67
2017-06-08T14:04:45.544Z,2.50
2017-06-08T14:07:13.862Z,2.63
2017-06-08T14:09:41.332Z,2.10
2017-06-08T14:12:08.806Z,2.20
2017-06-08T14:14:36.306Z,2.27
2017-06-08T14:17:03.779Z,1.60
2017-06-08T14:19:31.282Z,2.70
2017-06-08T14:21:58.758Z,2.00
2017-06-08T14:24:27.007Z,1.80
2017-06-08T14:26:54.502Z,2.37
2017-06-08T14:29:21.973Z,2.07
2017-06-08T14:31:49.475Z,2.10
2017-06-08T14:34:17.146Z,1.73
2017-06-08T14:36:45.387Z,2.07
2017-06-08T14:39:13.164Z,1.97
2017-06-08T14:41:40.639Z,2.40
2017-06-08T14:44:08.899Z,1.97
2017-06-08T14:46:36.378Z,2.03
2017-06-08T14:49:03.855Z,1.70
2017-06-08T14:51:31.353Z,2.63
2017-06-08T14:53:58.824Z,1.67
2017-06-08T14:56:26.331Z,1.97
2017-06-08T14:58:53.803Z,2.20
2017-06-08T15:01:21.277Z,2.03
2017-06-08T15:03:48.778Z,2.37
2017-06-08T15:06:16.255Z,1.40
2017-06-08T15:08:43.759Z,1.93
2017-06-08T15:11:11.237Z,1.77
2017-06-08T15:13:39.498Z,2.13
2017-06-08T15:16:06.976Z,1.90
2017-06-08T15:18:34.457Z,2.13
2017-06-08T15:21:01.945Z,2.10
2017-06-08T15:23:29.422Z,2.13
2017-06-08T15:25:57.723Z,1.90
2017-06-08T15:28:25.206Z,2.00
2017-06-08T15:30:52.680Z,2.47
2017-06-08T15:33:20.166Z,2.23
2017-06-08T15:35:47.647Z,2.07
2017-06-08T15:38:15.184Z,2.20
2017-06-08T15:40:42.666Z,1.70
2017-06-08T15:43:10.143Z,1.67
2017-06-08T15:45:37.712Z,1.70
2017-06-08T15:48:05.194Z,2.13
2017-06-08T15:50:32.703Z,1.60
2017-06-08T15:53:00.207Z,2.70
2017-06-08T15:55:27.686Z,1.80
2017-06-08T15:57:55.942Z,2.43
2017-06-08T16:00:23.442Z,1.87
2017-06-08T16:02:50.931Z,2.20
2017-06-08T16:05:18.465Z,1.83
2017-06-08T16:07:45.939Z,2.10
2017-06-08T16:10:13.432Z,2.10
2017-06-08T16:12:41.670Z,2.00
2017-06-08T16:15:09.224Z,2.00
2017-06-08T16:17:36.703Z,1.80
2017-06-08T16:20:04.194Z,2.00
2017-06-08T16:22:31.689Z,1.90
2017-06-08T16:24:59.181Z,2.20
2017-06-08T16:27:27.455Z,1.80
2017-06-08T16:29:56.619Z,2.17
2017-06-08T16:32:24.406Z,1.93
2017-06-08T16:34:51.903Z,2.13
2017-06-08T16:37:19.388Z,2.40
2017-06-08T16:39:46.895Z,2.30
2017-06-08T16:42:15.157Z,1.80
2017-06-08T16:44:43.451Z,1.33
2017-06-08T16:47:10.947Z,1.73
2017-06-08T16:49:38.424Z,1.77
2017-06-08T16:52:05.906Z,2.20
2017-06-08T16:54:33.406Z,1.77
2017-06-08T16:57:00.890Z,2.00
2017-06-08T16:59:28.406Z,2.73
2017-06-08T17:01:55.935Z,2.30
2017-06-08T17:04:23.424Z,2.33
2017-06-08T17:06:50.899Z,1.90
2017-06-08T17:09:18.419Z,2.73
2017-06-08T17:11:45.891Z,1.50
2017-06-08T17:14:13.364Z,1.80
2017-06-08T17:16:40.872Z,1.80
2017-06-08T17:19:08.350Z,2.23
2017-06-08T17:21:35.879Z,2.33
2017-06-08T17:24:03.361Z,2.20
2017-06-08T17:26:30.871Z,1.87
2017-06-08T17:28:58.386Z,2.00
2017-06-08T17:31:25.863Z,1.93
2017-06-08T17:33:53.377Z,1.80
2017-06-08T17:36:20.875Z,2.00
2017-06-08T17:38:48.342Z,2.60
2017-06-08T17:41:15.834Z,2.30
2017-06-08T17:43:43.312Z,1.87
2017-06-08T17:46:10.828Z,1.97
2017-06-08T17:48:39.067Z,2.50
2017-06-08T17:51:06.550Z,2.13
2017-06-08T17:53:34.038Z,1.90
2017-06-08T17:56:01.525Z,2.20
2017-06-08T17:58:29.031Z,1.90
2017-06-08T18:00:57.275Z,1.83
2017-06-08T18:03:24.758Z,1.77
2017-06-08T18:05:52.255Z,2.60
2017-06-08T18:08:19.735Z,1.90
2017-06-08T18:10:47.242Z,2.07
2017-06-08T18:13:14.721Z,2.47
2017-06-08T18:15:42.198Z,2.07
2017-06-08T18:18:09.751Z,1.77
2017-06-08T18:20:37.227Z,1.77
2017-06-08T18:23:05.531Z,2.30
2017-06-08T18:25:33.771Z,1.93
2017-06-08T18:28:01.247Z,2.00
2017-06-08T18:30:29.503Z,2.07
2017-06-08T18:32:56.974Z,1.90
2017-06-08T18:35:25.252Z,2.20
2017-06-08T18:37:53.506Z,1.80
2017-06-08T18:40:20.980Z,1.90
2017-06-08T18:42:49.239Z,1.67
2017-06-08T18:45:16.720Z,2.10
2017-06-08T18:47:44.238Z,1.97
2017-06-08T18:50:11.715Z,2.10
2017-06-08T18:52:39.960Z,2.20
2017-06-08T18:55:07.451Z,2.60
2017-06-08T18:57:35.688Z,1.87
2017-06-08T19:00:03.248Z,2.40
2017-06-08T19:02:30.727Z,2.00
2017-06-08T19:04:58.205Z,1.90
2017-06-08T19:07:26.479Z,2.93
2017-06-08T19:09:53.958Z,3.17
2017-06-08T19:12:21.475Z,2.40
2017-06-08T19:14:49.741Z,2.37
2017-06-08T19:17:17.983Z,1.90
2017-06-08T19:19:45.470Z,2.40
2017-06-08T19:22:13.711Z,2.40
2017-06-08T19:24:41.215Z,2.30
2017-06-08T19:27:09.453Z,2.70
2017-06-08T19:29:36.938Z,3.13
2017-06-08T19:32:05.295Z,3.10
2017-06-08T19:34:32.768Z,2.90
2017-06-08T19:37:01.075Z,2.63
2017-06-08T19:39:28.570Z,2.17
2017-06-08T19:41:56.058Z,1.90
2017-06-08T19:44:23.558Z,1.93
2017-06-08T19:46:51.030Z,1.70
2017-06-08T19:49:18.538Z,2.00
2017-06-08T19:51:46.022Z,1.77
2017-06-08T19:54:13.500Z,2.17
2017-06-08T19:56:41.018Z,2.13
2017-06-08T19:59:08.498Z,2.43
2017-06-08T20:01:35.971Z,2.50
2017-06-08T20:04:03.483Z,2.13
2017-06-08T20:06:30.958Z,2.20
2017-06-08T20:08:58.428Z,2.20
2017-06-08T20:11:26.052Z,2.60
2017-06-08T20:13:53.603Z,2.53
2017-06-08T20:16:21.138Z,2.47
2017-06-08T20:18:48.667Z,1.87
2017-06-08T20:21:16.203Z,3.70
2017-06-08T20:23:43.698Z,9.10
2017-06-08T20:26:11.207Z,3.40
2017-06-08T20:28:38.695Z,2.23
2017-06-08T20:31:06.186Z,1.80
2017-06-08T20:33:34.469Z,1.67
2017-06-08T20:36:01.967Z,2.50
2017-06-08T20:38:29.456Z,2.40
2017-06-08T20:40:56.970Z,2.27
2017-06-08T20:43:24.459Z,2.30
2017-06-08T20:45:51.948Z,2.33
2017-06-08T20:48:19.447Z,2.33
2017-06-08T20:50:46.928Z,2.13
2017-06-08T20:53:14.410Z,1.90
2017-06-08T20:55:42.691Z,2.47
2017-06-08T20:58:10.932Z,1.90
2017-06-08T21:00:38.412Z,2.23
2017-06-08T21:03:06.692Z,2.30
2017-06-08T21:05:34.939Z,3.60
2017-06-08T21:08:02.430Z,2.27
2017-06-08T21:10:29.946Z,2.30
2017-06-08T21:12:57.431Z,2.20
2017-06-08T21:15:25.686Z,2.23
2017-06-08T21:17:53.200Z,2.27
2017-06-08T21:20:20.707Z,2.80
2017-06-08T21:22:49.013Z,2.97
2017-06-08T21:25:16.524Z,3.53
2017-06-08T21:27:43.999Z,3.57
2017-06-08T21:30:11.484Z,2.80
2017-06-08T21:32:39.006Z,3.17
2017-06-08T21:35:06.487Z,3.30
2017-06-08T21:37:34.007Z,3.70
2017-06-08T21:40:01.512Z,3.03
2017-06-08T21:42:28.990Z,2.90
2017-06-08T21:44:56.477Z,3.20
2017-06-08T21:47:23.986Z,3.33
2017-06-08T21:49:51.467Z,3.23
2017-06-08T21:52:18.966Z,3.07
2017-06-08T21:54:46.482Z,3.10
2017-06-08T21:57:13.959Z,3.50
2017-06-08T21:59:41.439Z,2.57
2017-06-08T22:02:09.715Z,3.33
2017-06-08T22:04:37.192Z,3.47
2017-06-08T22:07:04.671Z,3.63
2017-06-08T22:09:32.175Z,3.70
2017-06-08T22:11:59.654Z,4.77
2017-06-08T22:14:27.894Z,3.20
2017-06-08T22:16:55.404Z,3.67
2017-06-08T22:19:22.888Z,4.60
2017-06-08T22:21:50.370Z,3.50
2017-06-08T22:24:17.887Z,3.80
2017-06-08T22:26:45.376Z,3.83
2017-06-08T22:29:12.847Z,4.27
2017-06-08T22:31:40.370Z,3.90
2017-06-08T22:34:07.846Z,3.50
2017-06-08T22:36:35.327Z,4.37
2017-06-08T22:39:03.599Z,3.47
2017-06-08T22:41:31.844Z,3.87
2017-06-08T22:43:59.328Z,4.30
2017-06-08T22:46:26.839Z,4.43
2017-06-08T22:48:54.310Z,4.37
2017-06-08T22:51:21.803Z,4.70
2017-06-08T22:53:50.079Z,3.47
2017-06-08T22:56:18.323Z,4.10
2017-06-08T22:58:45.802Z,3.83
2017-06-08T23:01:13.318Z,4.53
2017-06-08T23:03:40.793Z,3.30
2017-06-08T23:06:08.271Z,4.50
2017-06-08T23:08:36.551Z,3.90
2017-06-08T23:11:04.798Z,4.13
2017-06-08T23:13:32.290Z,4.60
2017-06-08T23:16:00.575Z,4.60
2017-06-08T23:18:28.051Z,4.63
2017-06-08T23:20:55.539Z,4.30
2017-06-08T23:23:23.039Z,4.03
2017-06-08T23:25:51.281Z,4.10
2017-06-08T23:28:18.759Z,3.80
2017-06-08T23:30:47.039Z,4.30
2017-06-08T23:33:15.283Z,4.80
2017-06-08T23:35:42.760Z,3.63
2017-06-08T23:38:10.270Z,3.60
2017-06-08T23:40:37.744Z,4.23
2017-06-08T23:43:05.220Z,3.80
2017-06-08T23:45:32.718Z,3.90
2017-06-08T23:48:00.197Z,3.80
2017-06-08T23:50:27.684Z,4.27
2017-06-08T23:52:55.199Z,3.80
2017-06-08T23:55:22.674Z,3.40
2017-06-08T23:57:50.153Z,3.80
